LCLKLGKP

Guest
Details From LCLK - Larnaca
To LGKP - KARPATHOS
Flight Number -
Tags generated
Created
Modified
Stats Distance 322 nm / 597 km
Max Altitude 30,700 ft / 9,357 m
Waypoints 9
Social Downloads 0
Likes 0
Share VATSIM

Download

Looking for another format? Having issues loading an existing format? Contact us
Advertisement - Login to hide

Notes

Basic altitude profile: - Ascent Rate: 2500ft/min - Ascent Speed: 250kts - Cruise Altitude: 35000ft - Cruise Speed: 420kts - Descent Rate: 1500ft/min - Descent Speed: 250kts Options: - Use NATs: yes - Use PACOTS: yes - Use low airways: yes - Use high airways: yes

Route

LCLK RUBIK M978 TOBAL UM978 GISOS LGKP

ID Type Via Altitude Latitude Longitude Leg Dist Tot Dist Heading (true) Name
O LCLK APT - 0 ft / 0 m 34.87512˚ 33.62483˚ - 0 nm - Larnaca
RUBIK FIX - 9,500 ft / 2,896 m 34.90333˚ 33.08167˚ 26 nm 26 nm 274° / 273° -
LUBES FIX M978 (AWY-LO) 14,500 ft / 4,420 m 34.92000˚ 32.74333˚ 16 nm 43 nm 274° / 273° -
TOBAL FIX M978 (AWY-LO) 24,500 ft / 7,468 m 34.92500˚ 32.12333˚ 30 nm 74 nm 271° / 270° -
TOSKA FIX UM978 (AWY-HI) 30,700 ft / 9,357 m 34.96667˚ 30.00000˚ 104 nm 178 nm 272° / 271° -
AMONO FIX UM978 (AWY-HI) 28,300 ft / 8,626 m 34.97222˚ 29.87000˚ 6 nm 184 nm 273° / 273° -
VAXOS FIX UM978 (AWY-HI) 24,500 ft / 7,468 m 34.99306˚ 29.33444˚ 26 nm 211 nm 273° / 273° -
GISOS FIX UM978 (AWY-HI) 24,500 ft / 7,468 m 35.00472˚ 29.00583˚ 16 nm 227 nm 273° / 272° -
O LGKP APT - 0 ft / 0 m 35.42141˚ 27.14601˚ 94 nm 322 nm 286° / 285° KARPATHOS

Altitude Profile

Advertisement - Login to hide

Weather


0- 5 10 15 20 25 30 35+ Temperature / ° C

Clouds and Precipitation
Forecast for 2017-12-14 00:00 UTC. Updated an hour ago

Ground ~20,000 ft ~40,000 ft Winds

LCLK

Details ICAO LCLK (LCA)
Name Larnaca
Region Cyprus
Timezone Asia/Nicosia (UTC+2.0)
Stats Elevation 8 ft / 2 m (AMSL)
Location 34.875115° 33.624832°
Runways 1
Magnetic Variation 4.990° E

METAR

LCLK 140030Z 33004KT CAVOK 10/07 Q1017 NOSIG

Decode

TAF

TAF LCLK 132330Z 1400/1424 32006KT 9999 FEW030 BECMG 1408/1411 21012KT BECMG 1415/1418 31006KT

Decode

Departure Runways

ID Width Length Bearing (true) Bearing (mag) Surface Threshold Offset Overrun Length
04 148 ft / 45 m 9,771 ft / 2,978 m 45.15° 40.16° Asphalt 0 ft / 0 m 210 ft / 64 m
22 148 ft / 45 m 9,771 ft / 2,978 m 225.17° 220.18° Asphalt 575 ft / 175 m 0 ft / 0 m

LGKP

Details ICAO LGKP (AOK)
Name KARPATHOS
Region Greece
Timezone Europe/Athens (UTC+2.0)
Stats Elevation 66 ft / 20 m (AMSL)
Location 35.421407° 27.146007°
Runways 1
Magnetic Variation 4.589° E

METAR

LGKP 140020Z AUTO 26014KT //// // ////// 17/12 Q1019 RE//

Decode

TAF

Not found

Destination Runways

ID Width Length Bearing (true) Bearing (mag) Surface Threshold Offset Overrun Length
12 98 ft / 30 m 7,866 ft / 2,398 m 124.49° 119.90° Asphalt 492 ft / 150 m 983 ft / 300 m
30 98 ft / 30 m 7,866 ft / 2,398 m 304.50° 299.91° Asphalt 492 ft / 150 m 458 ft / 140 m

Popular Alternatives